Time;durP1;ratioP1;P1;durP2;ratioP2;P2;SDS_P1;SDS_P2;PMS_P1;PMS_P2;Temp;Humidity;BMP_temperature;BMP_pressure;BME280_temperature;BME280_humidity;BME280_pressure;Samples;Min_cycle;Max_cycle;Signal;HPM_P1;HPM_P2
2023/07/15 00:00:17;;;;;;;4.17;3.87;;;21.10;99.90;;;;;;4976605;28;20455;-67
2023/07/15 00:02:44;;;;;;;5.33;4.17;;;21.10;99.90;;;;;;4976985;28;20531;-67
2023/07/15 00:05:35;;;;;;;4.43;4.03;;;21.10;99.90;;;;;;4977032;28;20803;-67
2023/07/15 00:08:04;;;;;;;6.30;4.30;;;21.00;99.90;;;;;;4977006;28;20415;-67
2023/07/15 00:10:29;;;;;;;3.83;3.53;;;20.90;99.90;;;;;;4976642;28;20427;-67
2023/07/15 00:12:57;;;;;;;4.40;3.93;;;20.90;99.90;;;;;;4976512;28;20880;-67
2023/07/15 00:15:23;;;;;;;4.20;3.90;;;20.90;99.90;;;;;;4977003;28;20438;-67
2023/07/15 00:17:48;;;;;;;4.13;3.83;;;21.00;99.90;;;;;;4976916;28;20489;-67
2023/07/15 00:20:14;;;;;;;5.50;4.70;;;20.90;99.90;;;;;;4976492;28;20204;-67
2023/07/15 00:22:43;;;;;;;3.97;3.57;;;20.80;99.90;;;;;;4976540;28;20235;-67
2023/07/15 00:25:13;;;;;;;4.80;3.80;;;20.90;99.90;;;;;;4976783;28;20823;-67
2023/07/15 00:27:38;;;;;;;5.00;4.60;;;20.80;99.90;;;;;;4976560;28;20491;-67
2023/07/15 00:30:04;;;;;;;4.70;3.87;;;20.80;99.90;;;;;;4976250;28;20577;-67
2023/07/15 00:32:30;;;;;;;4.30;3.90;;;20.70;99.90;;;;;;4976478;28;20669;-67
2023/07/15 00:34:55;;;;;;;4.87;4.47;;;20.60;99.90;;;;;;4976454;28;20420;-67
2023/07/15 00:37:21;;;;;;;4.50;4.20;;;20.50;99.90;;;;;;4976355;28;20773;-67
2023/07/15 00:39:46;;;;;;;6.93;4.63;;;20.60;99.90;;;;;;4976067;28;20238;-67
2023/07/15 00:42:37;;;;;;;5.20;4.80;;;20.70;99.90;;;;;;4976238;28;20207;-67
2023/07/15 00:45:03;;;;;;;4.23;3.93;;;20.90;99.90;;;;;;4976159;28;20181;-67
2023/07/15 00:47:39;;;;;;;4.10;3.80;;;21.20;99.90;;;;;;4976281;28;20425;-67
2023/07/15 00:50:06;;;;;;;5.10;4.70;;;21.40;99.90;;;;;;4976114;28;20172;-67
2023/07/15 00:52:32;;;;;;;4.50;4.10;;;21.40;99.90;;;;;;4975969;28;20431;-67
2023/07/15 00:54:58;;;;;;;4.63;4.23;;;21.40;99.90;;;;;;4976079;28;20426;-67
2023/07/15 00:57:25;;;;;;;4.87;4.47;;;21.40;99.90;;;;;;4976039;28;20482;-67
2023/07/15 00:59:58;;;;;;;5.23;3.60;;;21.40;99.90;;;;;;4975648;28;20451;-67
2023/07/15 01:02:24;;;;;;;4.40;4.00;;;21.50;99.90;;;;;;4975989;28;20574;-67
2023/07/15 01:04:50;;;;;;;5.07;4.33;;;21.50;99.90;;;;;;4975908;28;20424;-67
2023/07/15 01:07:16;;;;;;;4.97;4.50;;;21.60;99.90;;;;;;4975188;28;20448;-67
2023/07/15 01:09:42;;;;;;;4.30;3.93;;;21.50;99.90;;;;;;4975592;28;20459;-67
2023/07/15 01:12:08;;;;;;;4.37;4.07;;;21.50;99.90;;;;;;4975451;28;20704;-67
2023/07/15 01:14:34;;;;;;;4.30;4.00;;;21.50;99.90;;;;;;4975715;28;20424;-67
2023/07/15 01:17:00;;;;;;;4.50;4.10;;;21.60;99.90;;;;;;4975761;28;20920;-67
2023/07/15 01:19:27;;;;;;;4.53;4.20;;;21.50;99.90;;;;;;4975329;28;20455;-67
2023/07/15 01:21:53;;;;;;;4.03;3.73;;;21.50;99.90;;;;;;4975418;28;20279;-67
2023/07/15 01:24:20;;;;;;;4.37;4.07;;;21.50;99.90;;;;;;4975763;28;20424;-67
2023/07/15 01:26:46;;;;;;;4.67;4.27;;;21.50;99.90;;;;;;4975919;28;20968;-67
2023/07/15 01:29:13;;;;;;;4.50;4.20;;;21.50;99.90;;;;;;4975052;28;20453;-67
2023/07/15 01:31:39;;;;;;;5.03;4.23;;;21.50;99.90;;;;;;4975431;28;20439;-67
2023/07/15 01:34:07;;;;;;;5.00;4.50;;;21.50;99.90;;;;;;4975371;28;20443;-67
2023/07/15 01:36:33;;;;;;;4.43;4.03;;;21.40;99.90;;;;;;4975599;28;20423;-67
2023/07/15 01:38:58;;;;;;;4.53;4.17;;;21.40;99.90;;;;;;4975058;28;20416;-67
2023/07/15 01:41:24;;;;;;;4.83;4.40;;;21.40;99.90;;;;;;4975202;28;20215;-67
2023/07/15 01:43:49;;;;;;;4.80;4.50;;;21.40;99.90;;;;;;4975164;28;20587;-67
2023/07/15 01:46:15;;;;;;;5.00;3.93;;;21.40;99.90;;;;;;4975209;28;20176;-67
2023/07/15 01:48:41;;;;;;;5.80;5.30;;;21.50;99.90;;;;;;4974846;28;20164;-67
2023/07/15 01:51:06;;;;;;;5.00;4.50;;;21.50;99.90;;;;;;4975031;28;20222;-67
2023/07/15 01:53:32;;;;;;;4.23;3.83;;;21.50;99.90;;;;;;4975085;28;20427;-67
2023/07/15 01:55:57;;;;;;;4.77;4.37;;;21.50;99.90;;;;;;4975037;28;20251;-67
2023/07/15 01:58:23;;;;;;;4.50;4.10;;;21.40;99.90;;;;;;4974599;28;20183;-67
2023/07/15 02:00:48;;;;;;;4.80;4.47;;;21.40;99.90;;;;;;4974786;28;20212;-67
2023/07/15 02:03:15;;;;;;;4.03;3.73;;;21.40;99.90;;;;;;4974856;28;20172;-67
2023/07/15 02:05:40;;;;;;;5.27;4.60;;;21.40;99.90;;;;;;4974909;28;20607;-67
2023/07/15 02:08:06;;;;;;;7.83;4.40;;;21.40;99.90;;;;;;4974678;28;20506;-67
2023/07/15 02:10:32;;;;;;;4.63;4.27;;;21.30;99.90;;;;;;4974604;28;20213;-67
2023/07/15 02:12:57;;;;;;;4.77;4.37;;;21.30;99.90;;;;;;4974894;28;20212;-68
2023/07/15 02:15:23;;;;;;;5.03;4.53;;;21.20;99.90;;;;;;4974584;28;20189;-68
2023/07/15 02:17:48;;;;;;;4.53;4.13;;;21.20;99.90;;;;;;4974089;28;20188;-68
2023/07/15 02:20:14;;;;;;;3.93;3.67;;;21.10;99.90;;;;;;4973773;28;20188;-68
2023/07/15 02:22:40;;;;;;;4.20;3.90;;;21.10;99.90;;;;;;4974361;28;20231;-68
2023/07/15 02:25:06;;;;;;;5.33;4.80;;;21.10;99.90;;;;;;4974399;28;20169;-68
2023/07/15 02:27:32;;;;;;;5.87;4.50;;;21.10;99.90;;;;;;4974442;28;20490;-68
2023/07/15 02:29:58;;;;;;;4.20;3.90;;;21.00;99.90;;;;;;4974218;28;20921;-67
2023/07/15 02:32:40;;;;;;;5.27;4.87;;;21.00;99.90;;;;;;4974267;28;20661;-68
2023/07/15 02:35:08;;;;;;;9.07;4.37;;;21.00;99.90;;;;;;4974427;28;20519;-67
2023/07/15 02:37:52;;;;;;;4.97;4.47;;;21.00;99.90;;;;;;4974370;28;20447;-68
2023/07/15 02:40:17;;;;;;;3.83;3.43;;;20.90;99.90;;;;;;4974096;28;20448;-67
2023/07/15 02:42:43;;;;;;;5.27;4.80;;;20.90;99.90;;;;;;4973980;28;20439;-68
2023/07/15 02:45:11;;;;;;;4.23;3.83;;;20.90;99.90;;;;;;4974053;28;20208;-68
2023/07/15 02:47:39;;;;;;;4.33;3.93;;;20.90;99.90;;;;;;4974115;28;20172;-67
2023/07/15 02:50:07;;;;;;;4.37;4.00;;;20.90;99.90;;;;;;4973744;28;20423;-67
2023/07/15 02:52:34;;;;;;;4.90;4.03;;;20.90;99.90;;;;;;4973913;28;20447;-67
2023/07/15 02:55:01;;;;;;;8.40;4.00;;;20.90;99.90;;;;;;4974012;28;20490;-67
2023/07/15 02:57:27;;;;;;;4.03;3.73;;;20.90;99.90;;;;;;4974017;28;20921;-68
2023/07/15 02:59:54;;;;;;;4.53;4.13;;;20.90;99.90;;;;;;4973514;28;20949;-67
2023/07/15 03:02:20;;;;;;;5.13;4.60;;;20.90;99.90;;;;;;4973763;28;20526;-67
2023/07/15 03:04:46;;;;;;;4.17;3.87;;;20.90;99.90;;;;;;4973808;28;20429;-68
2023/07/15 03:07:15;;;;;;;4.33;3.90;;;20.90;99.90;;;;;;4973831;28;20804;-67
2023/07/15 03:09:40;;;;;;;4.93;3.80;;;20.90;99.90;;;;;;4973432;28;20442;-68
2023/07/15 03:12:08;;;;;;;4.67;4.17;;;21.00;99.90;;;;;;4986612;28;20458;-68
2023/07/15 03:14:35;;;;;;;5.47;4.60;;;21.10;99.90;;;;;;4993009;28;20218;-67
2023/07/15 03:17:02;;;;;;;5.10;4.70;;;21.10;99.90;;;;;;4993099;28;20525;-68
2023/07/15 03:19:27;;;;;;;4.67;4.23;;;21.00;99.90;;;;;;4992607;28;20458;-67
2023/07/15 03:21:53;;;;;;;4.57;4.20;;;21.00;99.90;;;;;;4992792;28;20450;-68
2023/07/15 03:24:19;;;;;;;4.30;4.00;;;20.90;99.90;;;;;;4992893;28;20661;-67
2023/07/15 03:26:44;;;;;;;4.80;4.40;;;20.80;99.90;;;;;;4992761;28;20171;-68
2023/07/15 03:29:10;;;;;;;4.27;3.73;;;20.80;99.90;;;;;;4992279;28;20533;-67
2023/07/15 03:31:36;;;;;;;4.50;4.10;;;20.80;99.90;;;;;;4992896;28;20222;-69
2023/07/15 03:34:02;;;;;;;4.17;3.83;;;20.70;99.90;;;;;;4992773;28;20175;-69
2023/07/15 03:36:27;;;;;;;4.93;4.53;;;20.70;99.90;;;;;;4992724;28;20180;-68
2023/07/15 03:38:53;;;;;;;3.80;3.50;;;20.70;99.90;;;;;;4992408;28;20415;-68
2023/07/15 03:41:18;;;;;;;4.30;4.00;;;20.60;99.90;;;;;;4992415;28;20238;-69
2023/07/15 03:43:44;;;;;;;4.60;4.20;;;20.50;99.90;;;;;;4992625;28;20171;-68
2023/07/15 03:46:09;;;;;;;4.40;4.10;;;20.50;99.90;;;;;;4992718;28;20183;-67
2023/07/15 03:48:35;;;;;;;5.27;4.87;;;20.40;99.90;;;;;;4992322;28;20175;-69
2023/07/15 03:51:01;;;;;;;4.63;4.33;;;20.40;99.90;;;;;;4992565;28;20202;-69
2023/07/15 03:53:26;;;;;;;5.13;4.73;;;20.50;99.90;;;;;;4992493;28;20257;-68
2023/07/15 03:55:52;;;;;;;4.33;4.00;;;20.50;99.90;;;;;;4992576;28;20262;-69
2023/07/15 03:58:17;;;;;;;6.00;4.57;;;20.50;99.90;;;;;;4992351;28;20203;-68
2023/07/15 04:00:43;;;;;;;4.87;4.40;;;20.50;99.90;;;;;;4992323;28;20258;-68
2023/07/15 04:03:08;;;;;;;4.37;4.03;;;20.60;99.90;;;;;;4992535;28;20168;-68
2023/07/15 04:05:33;;;;;;;5.37;5.00;;;20.50;99.90;;;;;;4992396;28;20630;-68
2023/07/15 04:07:59;;;;;;;4.67;4.27;;;20.50;99.90;;;;;;4974939;28;20233;-68
2023/07/15 04:10:26;;;;;;;4.83;4.53;;;20.50;99.90;;;;;;4992051;28;20258;-68
2023/07/15 04:12:51;;;;;;;6.10;5.50;;;20.50;99.90;;;;;;4992255;28;20215;-68
2023/07/15 04:15:17;;;;;;;5.07;4.67;;;20.60;99.90;;;;;;4992463;28;20414;-68
2023/07/15 04:17:42;;;;;;;5.67;5.27;;;20.60;99.90;;;;;;4992342;28;20183;-67
2023/07/15 04:20:14;;;;;;;5.03;4.47;;;20.60;99.90;;;;;;4991947;28;20564;-67
2023/07/15 04:22:40;;;;;;;7.37;5.40;;;20.70;99.90;;;;;;4992252;28;20200;-68
2023/07/15 04:25:05;;;;;;;5.00;4.70;;;20.80;99.90;;;;;;4992156;28;20433;-67
2023/07/15 04:27:31;;;;;;;9.67;5.20;;;20.80;99.90;;;;;;4992189;28;20183;-68
2023/07/15 04:30:01;;;;;;;4.53;4.23;;;20.90;99.90;;;;;;4991961;28;20435;-67
2023/07/15 04:32:26;;;;;;;5.27;4.87;;;21.00;99.90;;;;;;4992135;28;20543;-67
2023/07/15 04:34:52;;;;;;;5.20;4.77;;;21.00;99.90;;;;;;4992313;28;20423;-67
2023/07/15 04:37:17;;;;;;;5.03;4.63;;;21.20;99.90;;;;;;4992168;28;20186;-67
2023/07/15 04:39:43;;;;;;;4.47;4.07;;;21.30;99.90;;;;;;4991696;28;20735;-68
2023/07/15 04:42:09;;;;;;;5.70;5.20;;;21.40;99.90;;;;;;4993724;28;20188;-68
2023/07/15 04:44:34;;;;;;;5.37;4.97;;;21.50;99.90;;;;;;4995796;28;20180;-67
2023/07/15 04:47:00;;;;;;;5.17;4.77;;;21.50;99.90;;;;;;4995665;28;20593;-67
2023/07/15 04:49:26;;;;;;;4.50;4.10;;;21.60;99.90;;;;;;4995362;28;20172;-68
2023/07/15 04:51:51;;;;;;;5.13;4.83;;;21.70;99.90;;;;;;4995578;28;20439;-67
2023/07/15 04:54:17;;;;;;;6.90;4.73;;;21.80;99.90;;;;;;4995517;28;20551;-68
2023/07/15 04:56:42;;;;;;;4.47;4.17;;;21.90;99.90;;;;;;4985254;28;20227;-69
2023/07/15 04:59:08;;;;;;;11.00;4.80;;;22.00;99.90;;;;;;4983814;28;20172;-69
2023/07/15 05:01:34;;;;;;;4.50;4.20;;;22.10;99.90;;;;;;4986113;28;20207;-69
2023/07/15 05:04:01;;;;;;;5.20;4.27;;;22.20;99.90;;;;;;4981107;28;20183;-69
2023/07/15 05:06:28;;;;;;;5.30;4.80;;;22.20;99.90;;;;;;4976000;28;20179;-69
2023/07/15 05:08:53;;;;;;;5.00;4.30;;;22.40;99.90;;;;;;4975536;28;20412;-69
2023/07/15 05:11:19;;;;;;;5.23;4.93;;;22.50;99.90;;;;;;4975685;28;20546;-69
2023/07/15 05:13:46;;;;;;;4.40;4.10;;;22.60;99.90;;;;;;4975774;28;20180;-70
2023/07/15 05:16:12;;;;;;;4.13;3.83;;;22.80;99.90;;;;;;4975873;28;20176;-69
2023/07/15 05:18:38;;;;;;;5.47;5.07;;;22.90;99.90;;;;;;4975453;28;20465;-70
2023/07/15 05:21:03;;;;;;;6.40;4.67;;;23.10;99.90;;;;;;4975537;28;20467;-70
2023/07/15 05:23:31;;;;;;;4.33;4.00;;;23.20;99.90;;;;;;4975456;28;20195;-69
2023/07/15 05:26:00;;;;;;;5.00;4.57;;;23.30;99.90;;;;;;4975757;28;20180;-69
2023/07/15 05:28:30;;;;;;;5.37;4.87;;;23.40;99.90;;;;;;4975377;28;20463;-71
2023/07/15 05:30:59;;;;;;;5.77;5.23;;;23.50;99.90;;;;;;4975336;28;20430;-70
2023/07/15 05:33:25;;;;;;;4.47;3.97;;;23.70;99.90;;;;;;4975506;28;20486;-70
2023/07/15 05:35:51;;;;;;;4.20;3.90;;;23.90;99.90;;;;;;4975294;28;20412;-69
2023/07/15 05:38:16;;;;;;;4.97;4.37;;;23.90;99.90;;;;;;4975064;28;20423;-70
2023/07/15 05:40:42;;;;;;;5.00;4.60;;;24.00;99.90;;;;;;4975236;28;20227;-69
2023/07/15 05:43:08;;;;;;;6.40;5.07;;;24.00;99.90;;;;;;4975228;28;20172;-70
2023/07/15 05:45:34;;;;;;;5.27;4.67;;;24.00;99.90;;;;;;4975234;28;20164;-70
2023/07/15 05:47:59;;;;;;;4.07;3.77;;;24.00;99.90;;;;;;4975147;28;20928;-69
2023/07/15 05:50:25;;;;;;;4.40;4.00;;;24.30;99.90;;;;;;4974799;28;20653;-69
2023/07/15 05:52:52;;;;;;;6.43;5.77;;;24.40;99.90;;;;;;4974834;28;20208;-70
2023/07/15 05:55:19;;;;;;;4.40;4.10;;;24.60;99.90;;;;;;4975078;28;20925;-70
2023/07/15 05:57:44;;;;;;;4.20;3.90;;;24.60;99.90;;;;;;4975101;28;20427;-70
2023/07/15 06:00:10;;;;;;;4.03;3.73;;;24.50;99.90;;;;;;4974662;28;20455;-69
2023/07/15 06:02:38;;;;;;;6.27;3.90;;;24.70;99.90;;;;;;4974863;28;20403;-70
2023/07/15 06:05:04;;;;;;;5.00;4.60;;;24.90;99.90;;;;;;4974998;28;20859;-70
2023/07/15 06:07:30;;;;;;;4.43;4.00;;;25.00;99.90;;;;;;4974852;28;20412;-70
2023/07/15 06:09:55;;;;;;;4.70;4.33;;;25.10;99.90;;;;;;4974623;28;20411;-70
2023/07/15 06:12:21;;;;;;;7.67;4.10;;;25.30;99.90;;;;;;4974594;28;20578;-70
2023/07/15 06:14:46;;;;;;;3.37;3.10;;;25.50;99.90;;;;;;4974703;28;20184;-70
2023/07/15 06:17:12;;;;;;;5.10;4.70;;;25.70;99.80;;;;;;4974660;28;20597;-70
2023/07/15 06:19:37;;;;;;;3.70;3.40;;;25.90;97.50;;;;;;4974196;28;20290;-70
2023/07/15 06:22:03;;;;;;;4.33;3.93;;;26.20;96.00;;;;;;4974569;28;20641;-70
2023/07/15 06:24:29;;;;;;;4.00;3.70;;;26.40;95.10;;;;;;4974500;28;20168;-70
2023/07/15 06:26:54;;;;;;;3.37;3.07;;;26.40;92.70;;;;;;4974482;28;20200;-68
2023/07/15 06:29:20;;;;;;;3.93;3.13;;;26.50;92.90;;;;;;4974110;28;20657;-69
2023/07/15 06:31:45;;;;;;;4.00;3.77;;;26.40;91.80;;;;;;4974337;28;20188;-69
2023/07/15 06:34:11;;;;;;;3.40;3.10;;;26.40;92.00;;;;;;4974261;28;20696;-68
2023/07/15 06:36:37;;;;;;;3.73;3.30;;;26.40;91.60;;;;;;4974542;28;20188;-69
2023/07/15 06:39:02;;;;;;;4.10;3.57;;;26.50;91.00;;;;;;4974122;28;20199;-69
2023/07/15 06:41:28;;;;;;;3.87;3.57;;;26.70;90.50;;;;;;4974046;28;20234;-69
2023/07/15 06:43:54;;;;;;;4.20;3.90;;;26.80;89.90;;;;;;4974167;28;20183;-69
2023/07/15 06:46:19;;;;;;;3.50;3.30;;;26.90;88.40;;;;;;4974173;28;20255;-69
2023/07/15 06:48:45;;;;;;;4.07;3.23;;;27.20;87.20;;;;;;4973761;28;20658;-69
2023/07/15 06:51:14;;;;;;;4.90;3.57;;;27.10;86.80;;;;;;4973886;28;20189;-69
2023/07/15 06:53:40;;;;;;;4.10;3.60;;;27.00;86.80;;;;;;4974135;28;20184;-69
2023/07/15 06:56:06;;;;;;;3.10;2.90;;;27.20;86.80;;;;;;4974064;28;20434;-69
2023/07/15 06:58:31;;;;;;;4.33;4.00;;;27.40;85.50;;;;;;4973526;28;20428;-69
2023/07/15 07:00:57;;;;;;;4.40;3.63;;;27.60;84.20;;;;;;4973725;28;20207;-69
2023/07/15 07:03:22;;;;;;;4.30;2.70;;;27.90;81.90;;;;;;4973770;28;20168;-69
2023/07/15 07:05:48;;;;;;;4.20;3.30;;;28.00;79.70;;;;;;4973507;28;20721;-69
2023/07/15 07:08:13;;;;;;;4.10;3.80;;;27.80;79.30;;;;;;4973482;28;20168;-69
2023/07/15 07:10:39;;;;;;;4.33;3.93;;;27.90;79.50;;;;;;4973671;28;20215;-69
2023/07/15 07:13:04;;;;;;;6.27;3.50;;;28.10;78.70;;;;;;4973724;28;20176;-69
2023/07/15 07:15:30;;;;;;;5.13;3.57;;;28.30;78.40;;;;;;4973939;28;20281;-69
2023/07/15 07:17:56;;;;;;;3.47;3.27;;;28.60;77.70;;;;;;4973465;28;20184;-69
2023/07/15 07:20:21;;;;;;;4.60;3.97;;;28.90;77.60;;;;;;4973322;28;20208;-69
2023/07/15 07:22:47;;;;;;;3.97;3.67;;;29.10;75.90;;;;;;4973407;28;20188;-68
2023/07/15 07:25:12;;;;;;;4.20;3.90;;;29.40;75.80;;;;;;4973494;28;20711;-69
2023/07/15 07:27:38;;;;;;;3.77;3.43;;;29.40;74.20;;;;;;4973434;28;20172;-69
2023/07/15 07:30:04;;;;;;;4.47;4.17;;;29.40;74.20;;;;;;4973149;28;20548;-69
2023/07/15 07:32:29;;;;;;;3.60;3.40;;;29.40;73.10;;;;;;4973166;28;20200;-69
2023/07/15 07:34:55;;;;;;;4.13;3.83;;;29.70;70.40;;;;;;4973327;28;20427;-69
2023/07/15 07:37:20;;;;;;;4.10;3.73;;;29.80;70.40;;;;;;4973524;28;20180;-68
2023/07/15 07:39:46;;;;;;;4.20;3.80;;;30.00;69.70;;;;;;4972969;28;20212;-69
2023/07/15 07:42:13;;;;;;;5.83;3.63;;;30.20;67.40;;;;;;4973212;28;20184;-69
2023/07/15 07:44:38;;;;;;;3.57;3.30;;;30.30;67.50;;;;;;4973210;28;20175;-69
2023/07/15 07:47:04;;;;;;;3.33;3.03;;;30.30;66.50;;;;;;4973175;28;20423;-69
2023/07/15 07:49:29;;;;;;;4.20;3.90;;;30.60;66.00;;;;;;4973026;28;20177;-69
2023/07/15 07:51:55;;;;;;;4.30;3.90;;;30.90;65.60;;;;;;4973012;28;20188;-70
2023/07/15 07:54:20;;;;;;;4.10;3.70;;;31.10;64.00;;;;;;4973106;28;20634;-69
2023/07/15 07:56:46;;;;;;;3.87;3.50;;;31.30;63.60;;;;;;4973147;28;20196;-70
2023/07/15 07:59:12;;;;;;;3.93;3.63;;;31.60;63.00;;;;;;4972833;28;20175;-69
2023/07/15 08:01:37;;;;;;;5.40;4.00;;;31.80;62.00;;;;;;4972969;28;20255;-69
2023/07/15 08:04:03;;;;;;;5.53;3.70;;;31.60;60.30;;;;;;4973242;28;20510;-69
2023/07/15 08:06:29;;;;;;;3.83;3.43;;;32.00;60.10;;;;;;4973160;28;20184;-69
2023/07/15 08:08:54;;;;;;;6.77;3.47;;;32.30;59.40;;;;;;4972765;28;20164;-70
2023/07/15 08:11:20;;;;;;;3.93;3.63;;;32.70;58.70;;;;;;4973370;28;20208;-69
2023/07/15 08:13:46;;;;;;;3.87;3.53;;;33.00;57.40;;;;;;4972957;28;20573;-70
2023/07/15 08:16:34;;;;;;;4.30;3.53;;;33.10;55.20;;;;;;4973066;28;20184;-69
2023/07/15 08:19:00;;;;;;;4.10;3.80;;;32.80;55.70;;;;;;4976513;28;20168;-69
2023/07/15 08:21:26;;;;;;;6.00;3.97;;;32.60;55.30;;;;;;4976592;28;20460;-70
2023/07/15 08:23:53;;;;;;;3.40;3.10;;;32.40;55.40;;;;;;4976817;28;20416;-69
2023/07/15 08:26:18;;;;;;;5.60;4.07;;;32.10;56.00;;;;;;4976653;28;20447;-70
2023/07/15 08:28:44;;;;;;;4.00;3.70;;;32.10;55.60;;;;;;4976256;28;20561;-69
2023/07/15 08:31:09;;;;;;;3.77;3.57;;;31.80;55.40;;;;;;4976547;28;20251;-69
2023/07/15 08:33:35;;;;;;;4.77;4.37;;;31.30;55.20;;;;;;4976482;28;20670;-70
2023/07/15 08:36:00;;;;;;;4.37;4.00;;;31.20;55.70;;;;;;4976482;28;20899;-69
2023/07/15 08:38:26;;;;;;;3.63;3.43;;;31.40;55.40;;;;;;4976130;28;20192;-70
2023/07/15 08:40:59;;;;;;;3.60;3.40;;;31.60;55.40;;;;;;4976343;28;20192;-70
2023/07/15 08:43:25;;;;;;;4.53;4.13;;;31.50;55.50;;;;;;4976333;28;20211;-69
2023/07/15 08:45:55;;;;;;;3.80;3.50;;;31.70;54.70;;;;;;4976337;28;20451;-70
2023/07/15 08:48:20;;;;;;;4.10;3.90;;;32.10;53.30;;;;;;4975942;28;20177;-69
2023/07/15 08:50:47;;;;;;;3.80;3.50;;;32.30;53.60;;;;;;4976288;28;20759;-69
2023/07/15 08:53:14;;;;;;;3.60;3.30;;;32.50;52.60;;;;;;4976331;28;20259;-69
2023/07/15 08:55:41;;;;;;;4.30;3.90;;;32.60;52.60;;;;;;4976102;28;20431;-69
2023/07/15 08:58:07;;;;;;;4.53;4.10;;;33.20;52.60;;;;;;4958597;28;20435;-69
2023/07/15 09:00:33;;;;;;;4.27;3.90;;;33.10;51.50;;;;;;4975731;28;20463;-69
2023/07/15 09:02:58;;;;;;;4.97;3.40;;;33.20;51.90;;;;;;4975865;28;20482;-69
2023/07/15 09:05:24;;;;;;;3.37;3.17;;;33.70;51.30;;;;;;4976122;28;20173;-70
2023/07/15 09:07:55;;;;;;;5.60;5.10;;;34.10;50.60;;;;;;4975402;28;20176;-69
2023/07/15 09:10:20;;;;;;;3.87;3.43;;;34.20;50.00;;;;;;4975730;28;20200;-70
2023/07/15 09:12:55;;;;;;;5.13;3.53;;;34.30;50.00;;;;;;4975656;28;20565;-69
2023/07/15 09:15:21;;;;;;;6.00;5.50;;;33.80;49.80;;;;;;4975820;28;20180;-69
2023/07/15 09:17:55;;;;;;;3.63;3.37;;;33.30;50.00;;;;;;4975668;28;20415;-69
2023/07/15 09:20:22;;;;;;;4.80;4.30;;;33.50;50.10;;;;;;4975318;28;20455;-69
2023/07/15 09:22:55;;;;;;;4.23;3.93;;;33.60;49.10;;;;;;4975559;28;20814;-69
2023/07/15 09:25:22;;;;;;;4.30;4.00;;;34.00;49.50;;;;;;4975641;28;20427;-69
2023/07/15 09:27:47;;;;;;;4.47;4.07;;;34.10;48.60;;;;;;4975168;28;20824;-69
2023/07/15 09:30:14;;;;;;;4.67;4.27;;;34.30;48.40;;;;;;4975216;28;20520;-69
2023/07/15 09:32:39;;;;;;;4.70;4.37;;;34.50;48.20;;;;;;4975369;28;20644;-70
2023/07/15 09:35:06;;;;;;;3.63;3.43;;;34.70;47.30;;;;;;4975332;28;20455;-70
2023/07/15 09:37:32;;;;;;;4.30;4.00;;;35.20;46.70;;;;;;4975345;28;20168;-69
2023/07/15 09:40:07;;;;;;;4.17;3.80;;;35.30;46.40;;;;;;4975223;28;20462;-69
2023/07/15 09:42:50;;;;;;;3.93;3.30;;;35.70;45.80;;;;;;4975313;28;20457;-70
2023/07/15 09:45:32;;;;;;;5.07;4.60;;;36.30;43.80;;;;;;4975254;28;20478;-69
2023/07/15 09:47:57;;;;;;;3.97;3.67;;;36.40;42.60;;;;;;4975258;28;20506;-69
2023/07/15 09:50:23;;;;;;;4.10;3.70;;;36.40;42.60;;;;;;4975074;28;20511;-69
2023/07/15 09:52:51;;;;;;;3.87;3.53;;;36.10;43.00;;;;;;4975241;28;20200;-69
2023/07/15 09:55:17;;;;;;;3.50;3.30;;;35.70;43.40;;;;;;4975158;28;20470;-70
2023/07/15 09:57:43;;;;;;;4.03;3.80;;;35.20;43.60;;;;;;4974976;28;20490;-70
2023/07/15 10:00:09;;;;;;;4.60;4.30;;;35.30;43.60;;;;;;4974605;28;20456;-69
2023/07/15 10:02:42;;;;;;;4.80;4.40;;;36.00;43.00;;;;;;4974845;28;20286;-70
2023/07/15 10:05:13;;;;;;;4.23;3.73;;;37.40;42.10;;;;;;4975067;28;20419;-69
2023/07/15 10:07:42;;;;;;;4.00;3.70;;;38.00;40.70;;;;;;4974889;28;20482;-70
2023/07/15 10:10:08;;;;;;;4.30;4.00;;;38.10;40.90;;;;;;4974517;28;20436;-71
2023/07/15 10:12:35;;;;;;;3.87;3.67;;;38.30;40.00;;;;;;4974553;28;20459;-69
2023/07/15 10:15:02;;;;;;;3.90;3.70;;;38.00;39.00;;;;;;4974941;28;20427;-70
2023/07/15 10:17:37;;;;;;;3.47;3.27;;;37.80;39.10;;;;;;4974724;28;20435;-70
2023/07/15 10:20:17;;;;;;;4.20;3.30;;;37.70;39.40;;;;;;4974270;28;20454;-69
2023/07/15 10:22:43;;;;;;;8.47;3.87;;;37.80;39.00;;;;;;4974493;28;20475;-70
2023/07/15 10:25:11;;;;;;;4.53;3.47;;;38.30;38.20;;;;;;4974521;28;20455;-71
2023/07/15 10:27:37;;;;;;;3.87;3.67;;;38.70;38.20;;;;;;4974634;28;20204;-69
2023/07/15 10:30:25;;;;;;;4.07;3.87;;;39.30;36.90;;;;;;4974170;28;20856;-71
2023/07/15 10:33:08;;;;;;;15.23;4.03;;;39.50;35.60;;;;;;4974364;28;20490;-70
2023/07/15 10:35:41;;;;;;;14.67;4.40;;;38.20;36.30;;;;;;4974547;28;20794;-70
2023/07/15 10:38:26;;;;;;;3.77;3.43;;;37.30;37.20;;;;;;4974215;28;20487;-70
2023/07/15 10:40:54;;;;;;;12.27;3.67;;;36.50;37.10;;;;;;4973451;28;20459;-70
2023/07/15 10:43:50;;;;;;;6.20;3.10;;;36.00;37.90;;;;;;4974290;28;20776;-70
2023/07/15 10:46:17;;;;;;;6.43;3.57;;;36.20;38.50;;;;;;4971142;28;20518;-69
2023/07/15 10:48:43;;;;;;;3.83;3.30;;;37.40;36.90;;;;;;4973957;28;20424;-70
2023/07/15 10:51:09;;;;;;;3.07;2.87;;;38.70;35.60;;;;;;4973953;28;20975;-70
2023/07/15 10:53:36;;;;;;;3.60;3.40;;;39.60;34.80;;;;;;4974018;28;20427;-71
2023/07/15 10:56:04;;;;;;;4.63;3.53;;;40.60;33.70;;;;;;4973938;28;20511;-71
2023/07/15 10:58:35;;;;;;;5.53;4.47;;;40.70;33.20;;;;;;4973599;28;20439;-70
2023/07/15 11:01:03;;;;;;;3.93;3.60;;;40.70;32.80;;;;;;4973752;28;20902;-71
2023/07/15 11:03:30;;;;;;;3.73;3.53;;;40.00;32.70;;;;;;4973878;28;20427;-70
2023/07/15 11:06:03;;;;;;;4.27;3.97;;;41.10;32.30;;;;;;4973935;28;20412;-70
2023/07/15 11:08:30;;;;;;;2.90;2.80;;;40.90;31.60;;;;;;4973501;28;20467;-70
2023/07/15 11:11:02;;;;;;;3.57;3.37;;;39.80;31.60;;;;;;4973498;28;20806;-70
2023/07/15 11:13:28;;;;;;;4.50;4.20;;;39.50;32.50;;;;;;4973707;28;20842;-70
2023/07/15 11:15:55;;;;;;;3.90;3.33;;;38.70;33.20;;;;;;4973671;28;20426;-70
2023/07/15 11:18:22;;;;;;;3.30;3.10;;;38.00;33.80;;;;;;4973325;28;20423;-70
2023/07/15 11:20:53;;;;;;;3.93;3.63;;;37.50;33.30;;;;;;4973388;28;20455;-70
2023/07/15 11:23:19;;;;;;;4.23;3.83;;;37.40;34.00;;;;;;4973502;28;20862;-70
2023/07/15 11:25:45;;;;;;;3.80;3.60;;;37.40;34.10;;;;;;4973694;28;20791;-70
2023/07/15 11:28:11;;;;;;;12.50;4.20;;;37.40;33.80;;;;;;4973257;28;20435;-71
2023/07/15 11:30:39;;;;;;;3.43;3.23;;;38.90;32.80;;;;;;4973318;28;20470;-71
2023/07/15 11:33:05;;;;;;;3.10;2.90;;;41.00;30.80;;;;;;4973400;28;20169;-70
2023/07/15 11:35:35;;;;;;;3.77;3.57;;;43.00;29.70;;;;;;4973363;28;20419;-71
2023/07/15 11:38:11;;;;;;;3.97;3.50;;;43.60;28.30;;;;;;4973307;28;21009;-70
2023/07/15 11:40:53;;;;;;;3.77;3.47;;;41.40;29.00;;;;;;4973157;28;20820;-70
2023/07/15 11:43:20;;;;;;;3.80;3.50;;;40.10;29.60;;;;;;4973245;28;20943;-70
2023/07/15 11:45:47;;;;;;;3.73;3.43;;;40.20;29.90;;;;;;4973210;28;20784;-70
2023/07/15 11:48:18;;;;;;;3.67;3.37;;;41.70;29.30;;;;;;4972892;28;20470;-71
2023/07/15 11:50:44;;;;;;;3.30;3.10;;;42.80;28.10;;;;;;4973117;28;20420;-70
2023/07/15 11:53:26;;;;;;;3.30;3.10;;;43.20;27.50;;;;;;4973344;28;20494;-70
2023/07/15 11:55:52;;;;;;;3.40;3.30;;;43.30;27.40;;;;;;4973213;28;20176;-70
2023/07/15 11:58:45;;;;;;;3.17;2.87;;;42.80;27.70;;;;;;4972752;28;20433;-70
2023/07/15 12:01:14;;;;;;;3.70;3.50;;;41.20;28.10;;;;;;4973002;28;20241;-70
2023/07/15 12:03:40;;;;;;;4.67;3.67;;;40.60;28.90;;;;;;4973124;28;20426;-69
2023/07/15 12:06:14;;;;;;;3.37;3.07;;;39.90;29.20;;;;;;4973151;28;20419;-71
2023/07/15 12:08:39;;;;;;;3.73;3.53;;;39.20;29.50;;;;;;4972780;28;20164;-69
2023/07/15 12:11:05;;;;;;;4.50;4.10;;;38.80;32.30;;;;;;4972778;28;20469;-69
2023/07/15 12:13:30;;;;;;;4.43;4.20;;;38.40;33.80;;;;;;4972921;28;20182;-70
2023/07/15 12:15:56;;;;;;;4.03;3.73;;;37.80;35.20;;;;;;4972963;28;20187;-69
2023/07/15 12:18:21;;;;;;;5.60;4.23;;;38.00;35.20;;;;;;4972672;28;20176;-70
2023/07/15 12:20:47;;;;;;;7.00;3.93;;;38.70;35.10;;;;;;4972784;28;20192;-70
2023/07/15 12:23:13;;;;;;;4.63;4.23;;;40.60;34.30;;;;;;4973221;28;20508;-69
2023/07/15 12:25:39;;;;;;;4.90;4.47;;;41.50;32.50;;;;;;4972872;28;20180;-70
2023/07/15 12:28:04;;;;;;;4.40;4.10;;;43.20;31.20;;;;;;4972696;28;20506;-70
2023/07/15 12:30:30;;;;;;;4.30;3.97;;;44.60;30.20;;;;;;4972817;28;20177;-71
2023/07/15 12:32:55;;;;;;;5.00;4.47;;;45.90;29.70;;;;;;4972799;28;20200;-70
2023/07/15 12:35:21;;;;;;;4.23;4.03;;;46.90;29.00;;;;;;4972911;28;20184;-70
2023/07/15 12:37:46;;;;;;;4.93;4.43;;;46.90;28.40;;;;;;4972907;28;20204;-71
2023/07/15 12:40:12;;;;;;;4.70;4.40;;;47.00;28.10;;;;;;4972520;28;20267;-70
2023/07/15 12:42:39;;;;;;;4.87;4.57;;;47.10;28.00;;;;;;4972490;28;20211;-70
2023/07/15 12:45:05;;;;;;;5.27;4.87;;;47.80;27.40;;;;;;4972736;28;20282;-70